createdAt,value
2019-05-09T00:00:07.754Z,69.54
2019-05-09T00:03:13.816Z,69.50
2019-05-09T00:06:17.886Z,69.42
2019-05-09T00:09:23.159Z,69.51
2019-05-09T00:12:27.358Z,69.66
2019-05-09T00:15:33.300Z,69.57
2019-05-09T00:18:37.839Z,69.67
2019-05-09T00:21:44.353Z,69.51
2019-05-09T00:24:48.549Z,69.48
2019-05-09T00:27:53.697Z,69.57
2019-05-09T00:31:09.122Z,69.68
2019-05-09T00:34:17.851Z,69.79
2019-05-09T00:37:43.081Z,69.93
2019-05-09T00:40:56.000Z,70.03
2019-05-09T00:43:59.631Z,70.08
2019-05-09T00:47:09.989Z,70.34
2019-05-09T00:50:14.318Z,70.28
2019-05-09T00:53:18.291Z,70.38
2019-05-09T00:56:24.015Z,70.58
2019-05-09T00:59:29.335Z,70.56
2019-05-09T01:02:34.099Z,70.60
2019-05-09T01:05:38.258Z,70.58
2019-05-09T01:08:44.212Z,70.63
2019-05-09T01:11:48.240Z,70.74
2019-05-09T01:14:53.881Z,70.84
2019-05-09T01:17:58.170Z,70.90
2019-05-09T01:21:03.959Z,71.02
2019-05-09T01:24:08.466Z,71.02
2019-05-09T01:27:14.203Z,71.05
2019-05-09T01:30:18.538Z,71.14
2019-05-09T01:33:29.309Z,71.39
2019-05-09T01:36:50.815Z,71.46
2019-05-09T01:39:55.022Z,71.57
2019-05-09T01:42:59.153Z,71.72
2019-05-09T01:46:03.891Z,71.82
2019-05-09T01:49:08.070Z,71.91
2019-05-09T01:52:13.762Z,71.91
2019-05-09T01:55:17.935Z,72.01
2019-05-09T01:58:23.229Z,72.16
2019-05-09T02:01:27.482Z,72.31
2019-05-09T02:04:33.402Z,72.55
2019-05-09T02:07:37.569Z,72.71
2019-05-09T02:10:44.055Z,72.84
2019-05-09T02:13:48.507Z,72.91
2019-05-09T02:17:07.054Z,72.92
2019-05-09T02:20:13.520Z,72.90
2019-05-09T02:23:16.621Z,72.84
2019-05-09T02:26:20.564Z,72.73
2019-05-09T02:29:24.517Z,73.09
2019-05-09T02:32:28.874Z,73.36
2019-05-09T02:35:39.586Z,73.93
2019-05-09T02:38:39.240Z,74.23
2019-05-09T02:41:59.610Z,73.98
2019-05-09T02:44:49.621Z,74.20
2019-05-09T02:47:54.084Z,73.75
2019-05-09T02:51:00.336Z,73.33
2019-05-09T02:54:04.157Z,72.98
2019-05-09T02:57:09.324Z,72.74
2019-05-09T03:00:33.213Z,72.73
2019-05-09T03:03:39.402Z,72.37
2019-05-09T03:06:43.421Z,72.32
2019-05-09T03:09:48.219Z,72.08
2019-05-09T03:12:52.403Z,72.13
2019-05-09T03:16:00.535Z,72.05
2019-05-09T03:19:04.854Z,72.38
2019-05-09T03:22:14.248Z,72.46
2019-05-09T03:25:19.255Z,72.68
2019-05-09T03:28:39.355Z,72.82
2019-05-09T03:31:43.951Z,72.60
2019-05-09T03:34:48.239Z,72.38
2019-05-09T03:38:07.845Z,72.03
2019-05-09T03:41:11.462Z,71.51
2019-05-09T03:44:17.909Z,70.91
2019-05-09T03:47:31.475Z,70.62
2019-05-09T03:50:35.585Z,70.21
2019-05-09T03:53:40.306Z,69.92
2019-05-09T03:56:47.957Z,69.75
2019-05-09T03:59:52.142Z,69.56
2019-05-09T04:02:58.061Z,69.35
2019-05-09T04:06:03.191Z,69.14
2019-05-09T04:09:07.630Z,68.96
2019-05-09T04:12:12.021Z,68.77
2019-05-09T04:15:18.914Z,68.63
2019-05-09T04:18:21.883Z,68.57
2019-05-09T04:21:27.980Z,68.50
2019-05-09T04:24:32.874Z,68.42
2019-05-09T04:27:37.518Z,68.36
2019-05-09T04:30:42.031Z,68.25
2019-05-09T04:33:47.357Z,68.15
2019-05-09T04:36:51.946Z,68.06
2019-05-09T04:40:01.592Z,67.96
2019-05-09T04:43:11.958Z,67.89
2019-05-09T04:46:13.069Z,67.81
2019-05-09T04:49:14.556Z,67.69
2019-05-09T04:52:18.520Z,67.56
2019-05-09T04:55:27.289Z,67.35
2019-05-09T04:58:31.188Z,67.11
2019-05-09T05:02:03.664Z,66.81
2019-05-09T05:05:07.994Z,66.49
2019-05-09T05:08:11.821Z,66.18
2019-05-09T05:11:17.844Z,66.03
2019-05-09T05:14:21.805Z,66.02
2019-05-09T05:17:30.295Z,66.06
2019-05-09T05:20:31.772Z,66.18
2019-05-09T05:23:47.141Z,66.33
2019-05-09T05:26:51.775Z,66.56
2019-05-09T05:29:58.376Z,66.40
2019-05-09T05:33:05.063Z,66.47
2019-05-09T05:36:09.632Z,66.54
2019-05-09T05:39:14.339Z,66.72
2019-05-09T05:42:22.026Z,66.80
2019-05-09T05:45:28.385Z,66.83
2019-05-09T05:48:32.488Z,66.58
2019-05-09T05:51:49.153Z,65.94
2019-05-09T05:54:53.495Z,62.31
2019-05-09T05:57:58.099Z,62.09
2019-05-09T06:01:04.566Z,63.17
2019-05-09T06:04:08.753Z,63.37
2019-05-09T06:07:12.919Z,63.06
2019-05-09T06:10:18.661Z,62.48
2019-05-09T06:13:23.289Z,62.11
2019-05-09T06:16:28.128Z,60.39
2019-05-09T06:19:32.481Z,60.30
2019-05-09T06:22:38.248Z,59.70
2019-05-09T06:25:42.203Z,57.85
2019-05-09T06:28:48.122Z,56.17
2019-05-09T06:31:52.220Z,57.24
2019-05-09T06:34:57.835Z,58.75
2019-05-09T06:38:01.938Z,59.76
2019-05-09T06:41:08.489Z,60.23
2019-05-09T06:44:28.312Z,59.90
2019-05-09T06:47:38.203Z,58.97
2019-05-09T06:50:42.571Z,57.35
2019-05-09T06:53:48.858Z,56.19
2019-05-09T06:56:53.206Z,55.59
2019-05-09T06:59:57.897Z,55.15
2019-05-09T07:03:08.081Z,54.58
2019-05-09T07:06:17.803Z,55.22
2019-05-09T07:09:43.755Z,55.55
2019-05-09T07:12:48.709Z,55.68
2019-05-09T07:15:53.290Z,55.86
2019-05-09T07:18:58.018Z,55.93
2019-05-09T07:22:19.666Z,55.94
2019-05-09T07:25:48.915Z,56.22
2019-05-09T07:28:53.147Z,56.44
2019-05-09T07:32:05.019Z,56.74
2019-05-09T07:35:09.564Z,57.05
2019-05-09T07:38:13.794Z,57.40
2019-05-09T07:41:18.127Z,57.74
2019-05-09T07:44:22.346Z,58.01
2019-05-09T07:47:28.217Z,58.68
2019-05-09T07:50:32.299Z,59.15
2019-05-09T07:53:38.029Z,59.38
2019-05-09T07:56:42.425Z,60.00
2019-05-09T07:59:47.856Z,60.69
2019-05-09T08:02:51.999Z,60.83
2019-05-09T08:05:57.967Z,60.75
2019-05-09T08:09:03.274Z,60.88
2019-05-09T08:12:07.573Z,60.59
2019-05-09T08:15:16.626Z,60.35
2019-05-09T08:18:18.212Z,60.22
2019-05-09T08:21:22.351Z,60.45
2019-05-09T08:24:27.812Z,60.39
2019-05-09T08:27:32.590Z,60.21
2019-05-09T08:30:40.093Z,59.97
2019-05-09T08:33:42.297Z,59.55
2019-05-09T08:36:47.781Z,58.99
2019-05-09T08:39:52.222Z,58.28
2019-05-09T08:42:58.534Z,57.49
2019-05-09T08:46:02.443Z,57.25
2019-05-09T08:49:08.227Z,57.17
2019-05-09T08:52:16.442Z,57.23
2019-05-09T08:55:19.702Z,56.88
2019-05-09T08:58:23.594Z,55.99
2019-05-09T09:01:46.095Z,55.29
2019-05-09T09:04:33.991Z,54.95
2019-05-09T09:07:38.310Z,54.70
2019-05-09T09:10:42.266Z,55.13
2019-05-09T09:13:48.294Z,55.70
2019-05-09T09:16:52.395Z,56.24
2019-05-09T09:19:58.341Z,55.97
2019-05-09T09:23:02.912Z,55.25
2019-05-09T09:26:08.066Z,54.58
2019-05-09T09:29:12.148Z,54.68
2019-05-09T09:32:18.664Z,54.76
2019-05-09T09:35:21.995Z,54.92
2019-05-09T09:38:28.112Z,54.99
2019-05-09T09:41:33.074Z,54.66
2019-05-09T09:44:39.383Z,53.54
2019-05-09T09:47:43.279Z,53.67
2019-05-09T09:50:51.348Z,53.84
2019-05-09T09:53:53.346Z,53.75
2019-05-09T09:56:58.573Z,53.48
2019-05-09T10:00:23.404Z,52.70
2019-05-09T10:03:27.593Z,52.80
2019-05-09T10:06:32.262Z,53.67
2019-05-09T10:09:36.357Z,54.31
2019-05-09T10:12:44.301Z,55.15
2019-05-09T10:16:02.801Z,56.14
2019-05-09T10:19:18.532Z,57.68
2019-05-09T10:22:25.832Z,58.49
2019-05-09T10:25:29.440Z,58.83
2019-05-09T10:28:33.721Z,59.04
2019-05-09T10:31:39.204Z,59.23
2019-05-09T10:34:43.436Z,59.28
2019-05-09T10:37:48.558Z,59.16
2019-05-09T10:40:53.504Z,59.02
2019-05-09T10:44:04.081Z,58.77
2019-05-09T10:47:21.470Z,58.86
2019-05-09T10:50:25.364Z,58.68
2019-05-09T10:53:29.270Z,58.49
2019-05-09T10:56:33.513Z,58.83
2019-05-09T10:59:38.280Z,58.60
2019-05-09T11:02:42.901Z,57.96
2019-05-09T11:05:47.162Z,57.11
2019-05-09T11:08:51.014Z,55.86
2019-05-09T11:11:58.629Z,54.27
2019-05-09T11:15:01.439Z,53.16
2019-05-09T11:18:07.907Z,52.61
2019-05-09T11:21:11.559Z,52.46
2019-05-09T11:24:15.806Z,52.66
2019-05-09T11:27:20.008Z,53.13
2019-05-09T11:30:24.110Z,53.57
2019-05-09T11:33:28.300Z,53.98
2019-05-09T11:36:32.182Z,54.36
2019-05-09T11:39:41.770Z,54.51
2019-05-09T11:42:41.962Z,54.24
2019-05-09T11:45:47.891Z,53.59
2019-05-09T11:48:51.961Z,53.05
2019-05-09T11:51:57.649Z,52.57
2019-05-09T11:55:02.056Z,52.58
2019-05-09T11:58:08.409Z,52.74
2019-05-09T12:01:12.730Z,53.14
2019-05-09T12:04:18.718Z,53.44
2019-05-09T12:07:22.897Z,54.01
2019-05-09T12:10:28.610Z,55.00
2019-05-09T12:13:33.424Z,55.67
2019-05-09T12:16:38.201Z,56.84
2019-05-09T12:19:42.405Z,57.67
2019-05-09T12:22:48.464Z,58.14
2019-05-09T12:25:52.748Z,58.88
2019-05-09T12:28:57.818Z,59.76
2019-05-09T12:32:02.424Z,60.36
2019-05-09T12:35:08.676Z,60.76
2019-05-09T12:38:12.380Z,61.39
2019-05-09T12:41:18.685Z,61.78
2019-05-09T12:44:24.920Z,61.85
2019-05-09T12:47:29.091Z,61.87
2019-05-09T12:50:33.528Z,62.01
2019-05-09T12:53:39.597Z,62.32
2019-05-09T12:56:44.421Z,62.30
2019-05-09T12:59:52.680Z,62.14
2019-05-09T13:02:54.892Z,62.38
2019-05-09T13:05:59.491Z,62.88
2019-05-09T13:09:08.154Z,63.24
2019-05-09T13:12:11.848Z,63.33
2019-05-09T13:15:18.399Z,63.03
2019-05-09T13:18:25.386Z,62.29
2019-05-09T13:21:32.577Z,61.62
2019-05-09T13:24:34.498Z,61.25
2019-05-09T13:27:39.032Z,61.51
2019-05-09T13:30:43.781Z,61.89
2019-05-09T13:33:48.846Z,62.09
2019-05-09T13:36:53.390Z,62.55
2019-05-09T13:39:57.416Z,62.68
2019-05-09T13:43:01.893Z,62.56
2019-05-09T13:46:08.469Z,62.29
2019-05-09T13:49:15.414Z,62.34
2019-05-09T13:52:18.154Z,62.24
2019-05-09T13:55:22.327Z,62.33
2019-05-09T13:58:28.388Z,62.34
2019-05-09T14:01:32.331Z,62.24
2019-05-09T14:04:39.453Z,62.29
2019-05-09T14:07:42.375Z,62.61
2019-05-09T14:10:48.367Z,62.91
2019-05-09T14:13:52.177Z,62.89
2019-05-09T14:16:56.108Z,63.13
2019-05-09T14:20:00.158Z,63.47
2019-05-09T14:23:04.533Z,63.69
2019-05-09T14:26:09.549Z,63.79
2019-05-09T14:29:13.877Z,63.37
2019-05-09T14:32:18.277Z,63.22
2019-05-09T14:35:22.233Z,63.42
2019-05-09T14:38:26.348Z,63.97
2019-05-09T14:41:30.283Z,64.25
2019-05-09T14:44:37.581Z,64.41
2019-05-09T14:47:42.686Z,64.73
2019-05-09T14:50:49.402Z,64.89
2019-05-09T14:53:52.759Z,64.74
2019-05-09T14:56:58.321Z,64.69
2019-05-09T15:00:03.667Z,64.33
2019-05-09T15:03:08.303Z,64.14
2019-05-09T15:06:12.691Z,64.19
2019-05-09T15:09:18.174Z,64.29
2019-05-09T15:12:22.707Z,64.39
2019-05-09T15:15:32.017Z,64.29
2019-05-09T15:18:32.602Z,64.23
2019-05-09T15:21:38.203Z,64.41
2019-05-09T15:24:42.966Z,64.66
2019-05-09T15:27:47.666Z,64.68
2019-05-09T15:30:52.706Z,64.85
2019-05-09T15:33:57.039Z,64.98
2019-05-09T15:37:01.234Z,64.58
2019-05-09T15:40:08.452Z,64.47
2019-05-09T15:43:11.626Z,64.24
2019-05-09T15:46:24.062Z,64.29
2019-05-09T15:49:28.570Z,64.52
2019-05-09T15:52:33.028Z,64.88
2019-05-09T15:55:37.417Z,64.92
2019-05-09T15:58:41.558Z,65.32
2019-05-09T16:01:45.715Z,65.47
2019-05-09T16:04:50.146Z,65.41
2019-05-09T16:07:54.079Z,65.16
2019-05-09T16:10:58.629Z,65.21
2019-05-09T16:14:03.258Z,65.02
2019-05-09T16:17:07.945Z,64.63
2019-05-09T16:20:12.320Z,64.26
2019-05-09T16:23:18.396Z,63.93
2019-05-09T16:26:22.117Z,63.74
2019-05-09T16:29:28.508Z,63.83
2019-05-09T16:32:32.743Z,63.99
2019-05-09T16:35:38.148Z,64.02
2019-05-09T16:38:48.479Z,64.25
2019-05-09T16:41:48.941Z,64.49
2019-05-09T16:44:52.776Z,64.86
2019-05-09T16:47:57.542Z,65.08
2019-05-09T16:51:04.336Z,65.67
2019-05-09T16:54:08.142Z,65.61
2019-05-09T16:57:12.079Z,65.77
2019-05-09T17:00:48.327Z,65.83
2019-05-09T17:03:52.465Z,65.78
2019-05-09T17:06:57.653Z,66.06
2019-05-09T17:10:02.052Z,66.43
2019-05-09T17:13:07.797Z,66.87
2019-05-09T17:16:12.545Z,67.13
2019-05-09T17:19:19.165Z,67.19
2019-05-09T17:22:41.438Z,67.21
2019-05-09T17:25:47.927Z,67.35
2019-05-09T17:28:51.878Z,67.35
2019-05-09T17:31:58.349Z,67.25
2019-05-09T17:35:02.235Z,67.13
2019-05-09T17:38:08.645Z,67.31
2019-05-09T17:41:12.465Z,67.16
2019-05-09T17:44:18.623Z,66.91
2019-05-09T17:47:22.804Z,66.81
2019-05-09T17:50:28.514Z,66.72
2019-05-09T17:53:33.760Z,66.73
2019-05-09T17:56:38.858Z,67.07
2019-05-09T17:59:44.599Z,67.38
2019-05-09T18:02:48.922Z,67.91
2019-05-09T18:05:53.141Z,68.30
2019-05-09T18:08:57.722Z,68.74
2019-05-09T18:12:01.901Z,68.90
2019-05-09T18:15:07.661Z,69.02
2019-05-09T18:18:11.887Z,69.19
2019-05-09T18:21:17.832Z,69.08
2019-05-09T18:24:21.614Z,69.27
2019-05-09T18:27:27.435Z,69.34
2019-05-09T18:30:31.576Z,69.35
2019-05-09T18:33:47.623Z,69.48
2019-05-09T18:36:52.141Z,69.33
2019-05-09T18:39:58.177Z,69.21
2019-05-09T18:43:02.221Z,69.24
2019-05-09T18:46:08.217Z,69.15
2019-05-09T18:49:12.260Z,69.05
2019-05-09T18:52:16.848Z,69.23
2019-05-09T18:55:21.351Z,69.29
2019-05-09T18:58:26.201Z,69.40
2019-05-09T19:01:30.713Z,69.68
2019-05-09T19:04:34.984Z,69.60
2019-05-09T19:07:39.165Z,69.56
2019-05-09T19:10:43.693Z,69.55
2019-05-09T19:13:48.317Z,69.46
2019-05-09T19:17:20.649Z,69.50
2019-05-09T19:20:33.511Z,69.46
2019-05-09T19:23:37.644Z,69.60
2019-05-09T19:26:42.060Z,69.69
2019-05-09T19:29:46.385Z,69.82
2019-05-09T19:32:50.665Z,69.90
2019-05-09T19:35:54.833Z,69.96
2019-05-09T19:38:59.000Z,70.09
2019-05-09T19:42:03.242Z,70.13
2019-05-09T19:45:08.954Z,70.16
2019-05-09T19:48:12.847Z,70.21
2019-05-09T19:51:16.807Z,70.23
2019-05-09T19:54:21.063Z,70.26
2019-05-09T19:57:25.794Z,70.30
2019-05-09T20:00:30.220Z,70.31
2019-05-09T20:03:34.544Z,70.38
2019-05-09T20:06:38.791Z,70.42
2019-05-09T20:09:51.362Z,70.45
2019-05-09T20:13:14.455Z,70.54
2019-05-09T20:16:18.760Z,70.71
2019-05-09T20:19:23.398Z,70.86
2019-05-09T20:22:27.400Z,70.97
2019-05-09T20:25:31.516Z,71.05
2019-05-09T20:28:35.935Z,70.99
2019-05-09T20:31:39.961Z,70.93
2019-05-09T20:34:43.872Z,70.96
2019-05-09T20:37:47.912Z,70.96
2019-05-09T20:40:52.160Z,70.90
2019-05-09T20:43:56.494Z,70.97
2019-05-09T20:47:01.179Z,71.08
2019-05-09T20:50:05.703Z,71.08
2019-05-09T20:53:10.237Z,71.04
2019-05-09T20:56:15.144Z,71.22
2019-05-09T20:59:19.825Z,71.18
2019-05-09T21:02:24.235Z,71.08
2019-05-09T21:05:28.335Z,70.92
2019-05-09T21:08:33.146Z,70.74
2019-05-09T21:11:37.325Z,70.63
2019-05-09T21:14:41.597Z,70.52
2019-05-09T21:17:45.632Z,70.48
2019-05-09T21:20:50.364Z,70.47
2019-05-09T21:23:54.944Z,70.50
2019-05-09T21:26:59.379Z,70.59
2019-05-09T21:30:04.439Z,70.68
2019-05-09T21:33:08.550Z,70.76
2019-05-09T21:36:12.483Z,70.88
2019-05-09T21:39:16.308Z,71.04
2019-05-09T21:42:20.478Z,71.16
2019-05-09T21:45:24.655Z,71.19
2019-05-09T21:48:29.646Z,71.22
2019-05-09T21:51:34.403Z,71.10
2019-05-09T21:54:38.671Z,71.04
2019-05-09T21:57:42.590Z,70.95
2019-05-09T22:00:50.780Z,70.83
2019-05-09T22:03:55.076Z,70.67
2019-05-09T22:06:59.310Z,70.52
2019-05-09T22:10:04.484Z,70.48
2019-05-09T22:13:08.803Z,70.38
2019-05-09T22:16:13.106Z,70.30
2019-05-09T22:19:17.591Z,70.33
2019-05-09T22:22:21.793Z,70.14
2019-05-09T22:25:25.781Z,69.99
2019-05-09T22:28:29.631Z,69.87
2019-05-09T22:31:34.080Z,69.79
2019-05-09T22:34:38.200Z,69.93
2019-05-09T22:37:42.932Z,69.85
2019-05-09T22:40:46.834Z,69.79
2019-05-09T22:43:50.764Z,69.71
2019-05-09T22:46:55.382Z,69.62
2019-05-09T22:49:59.210Z,69.56
2019-05-09T22:53:03.208Z,69.59
2019-05-09T22:56:07.842Z,69.62
2019-05-09T22:59:12.271Z,69.59
2019-05-09T23:02:16.197Z,69.54
2019-05-09T23:05:20.457Z,69.52
2019-05-09T23:08:24.629Z,69.51
2019-05-09T23:11:29.175Z,69.53
2019-05-09T23:14:33.695Z,69.45
2019-05-09T23:17:38.407Z,69.48
2019-05-09T23:20:57.475Z,69.52
2019-05-09T23:24:06.924Z,69.63
2019-05-09T23:27:13.118Z,69.69
2019-05-09T23:30:17.211Z,69.75
2019-05-09T23:33:22.256Z,69.78
2019-05-09T23:36:26.513Z,69.74
2019-05-09T23:39:35.103Z,69.79
2019-05-09T23:42:39.287Z,69.90
2019-05-09T23:45:44.198Z,69.97
2019-05-09T23:48:48.325Z,69.95
2019-05-09T23:51:52.610Z,69.95
2019-05-09T23:55:14.730Z,70.06
2019-05-09T23:58:36.912Z,70.04
